sensor_id;sensor_type;location;lat;lon;timestamp;pressure;altitude;pressure_sealevel;temperature
51149;BMP280;37210;50.058;8.688;2022-11-25T00:01:16;100124.81;;;5.77
51149;BMP280;37210;50.058;8.688;2022-11-25T00:03:46;100135.50;;;5.92
51149;BMP280;37210;50.058;8.688;2022-11-25T00:06:17;100120.75;;;5.88
51149;BMP280;37210;50.058;8.688;2022-11-25T00:08:47;100115.81;;;5.57
51149;BMP280;37210;50.058;8.688;2022-11-25T00:11:16;100141.19;;;5.73
51149;BMP280;37210;50.058;8.688;2022-11-25T00:13:45;100090.91;;;5.66
51149;BMP280;37210;50.058;8.688;2022-11-25T00:16:16;100121.38;;;5.78
51149;BMP280;37210;50.058;8.688;2022-11-25T00:18:46;100082.88;;;5.53
51149;BMP280;37210;50.058;8.688;2022-11-25T00:21:16;100135.47;;;5.91
51149;BMP280;37210;50.058;8.688;2022-11-25T00:23:50;100126.38;;;5.67
51149;BMP280;37210;50.058;8.688;2022-11-25T00:26:18;100127.88;;;5.10
51149;BMP280;37210;50.058;8.688;2022-11-25T00:28:46;100074.28;;;5.09
51149;BMP280;37210;50.058;8.688;2022-11-25T00:31:17;100021.13;;;4.86
51149;BMP280;37210;50.058;8.688;2022-11-25T00:33:46;100100.91;;;5.47
51149;BMP280;37210;50.058;8.688;2022-11-25T00:36:15;100126.84;;;5.47
51149;BMP280;37210;50.058;8.688;2022-11-25T00:38:46;100074.84;;;4.93
51149;BMP280;37210;50.058;8.688;2022-11-25T00:41:19;100130.69;;;5.21
51149;BMP280;37210;50.058;8.688;2022-11-25T00:44:04;100116.59;;;5.07
51149;BMP280;37210;50.058;8.688;2022-11-25T00:46:51;100073.94;;;4.93
51149;BMP280;37210;50.058;8.688;2022-11-25T00:49:18;100131.91;;;5.39
51149;BMP280;37210;50.058;8.688;2022-11-25T00:51:46;100123.16;;;5.34
51149;BMP280;37210;50.058;8.688;2022-11-25T00:54:13;100062.75;;;4.94
51149;BMP280;37210;50.058;8.688;2022-11-25T00:56:41;100138.59;;;5.27
51149;BMP280;37210;50.058;8.688;2022-11-25T00:59:09;100132.69;;;5.34
51149;BMP280;37210;50.058;8.688;2022-11-25T01:01:38;100101.47;;;5.29
51149;BMP280;37210;50.058;8.688;2022-11-25T01:04:07;100045.22;;;4.39
51149;BMP280;37210;50.058;8.688;2022-11-25T01:06:36;100114.72;;;4.59
51149;BMP280;37210;50.058;8.688;2022-11-25T01:09:05;100103.97;;;4.81
51149;BMP280;37210;50.058;8.688;2022-11-25T01:11:33;100113.03;;;5.02
51149;BMP280;37210;50.058;8.688;2022-11-25T01:14:01;100039.97;;;3.98
51149;BMP280;37210;50.058;8.688;2022-11-25T01:16:29;100109.63;;;4.64
51149;BMP280;37210;50.058;8.688;2022-11-25T01:18:57;100133.56;;;4.93
51149;BMP280;37210;50.058;8.688;2022-11-25T01:21:28;100134.69;;;5.05
51149;BMP280;37210;50.058;8.688;2022-11-25T01:23:58;100063.94;;;4.67
51149;BMP280;37210;50.058;8.688;2022-11-25T01:26:27;100135.66;;;5.09
51149;BMP280;37210;50.058;8.688;2022-11-25T01:28:56;100074.19;;;4.61
51149;BMP280;37210;50.058;8.688;2022-11-25T01:31:29;100126.56;;;4.88
51149;BMP280;37210;50.058;8.688;2022-11-25T01:34:00;100068.09;;;4.59
51149;BMP280;37210;50.058;8.688;2022-11-25T01:36:31;100093.28;;;4.66
51149;BMP280;37210;50.058;8.688;2022-11-25T01:38:59;100090.13;;;4.79
51149;BMP280;37210;50.058;8.688;2022-11-25T01:41:30;100144.81;;;5.36
51149;BMP280;37210;50.058;8.688;2022-11-25T01:44:07;100140.41;;;5.32
51149;BMP280;37210;50.058;8.688;2022-11-25T01:46:47;100104.31;;;4.56
51149;BMP280;37210;50.058;8.688;2022-11-25T01:49:25;100139.97;;;5.10
51149;BMP280;37210;50.058;8.688;2022-11-25T01:52:01;100140.72;;;5.04
51149;BMP280;37210;50.058;8.688;2022-11-25T01:54:39;100134.69;;;5.05
51149;BMP280;37210;50.058;8.688;2022-11-25T01:57:13;100063.38;;;4.82
51149;BMP280;37210;50.058;8.688;2022-11-25T01:59:49;100102.78;;;5.08
51149;BMP280;37210;50.058;8.688;2022-11-25T02:02:19;100134.50;;;5.38
51149;BMP280;37210;50.058;8.688;2022-11-25T02:04:48;100133.69;;;5.42
51149;BMP280;37210;50.058;8.688;2022-11-25T02:07:21;100112.59;;;5.24
51149;BMP280;37210;50.058;8.688;2022-11-25T02:09:55;100118.38;;;5.57
51149;BMP280;37210;50.058;8.688;2022-11-25T02:12:24;100126.84;;;5.45
51149;BMP280;37210;50.058;8.688;2022-11-25T02:14:54;100114.75;;;5.46
51149;BMP280;37210;50.058;8.688;2022-11-25T02:17:24;100143.44;;;5.55
51149;BMP280;37210;50.058;8.688;2022-11-25T02:19:58;100031.78;;;5.01
51149;BMP280;37210;50.058;8.688;2022-11-25T02:22:43;100100.66;;;5.32
51149;BMP280;37210;50.058;8.688;2022-11-25T02:25:22;100125.56;;;5.24
51149;BMP280;37210;50.058;8.688;2022-11-25T02:27:54;100099.41;;;5.13
51149;BMP280;37210;50.058;8.688;2022-11-25T02:30:27;100106.69;;;5.32
51149;BMP280;37210;50.058;8.688;2022-11-25T02:32:57;100128.28;;;5.30
51149;BMP280;37210;50.058;8.688;2022-11-25T02:35:28;100117.81;;;5.25
51149;BMP280;37210;50.058;8.688;2022-11-25T02:38:04;100086.81;;;5.31
51149;BMP280;37210;50.058;8.688;2022-11-25T02:40:40;100108.16;;;5.17
51149;BMP280;37210;50.058;8.688;2022-11-25T02:43:12;100046.13;;;4.82
51149;BMP280;37210;50.058;8.688;2022-11-25T02:45:45;100122.25;;;5.31
51149;BMP280;37210;50.058;8.688;2022-11-25T02:48:22;100104.97;;;5.31
51149;BMP280;37210;50.058;8.688;2022-11-25T02:50:50;100125.44;;;5.18
51149;BMP280;37210;50.058;8.688;2022-11-25T02:53:18;100044.38;;;4.81
51149;BMP280;37210;50.058;8.688;2022-11-25T02:55:48;100114.44;;;5.29
51149;BMP280;37210;50.058;8.688;2022-11-25T02:58:15;100099.75;;;5.30
51149;BMP280;37210;50.058;8.688;2022-11-25T03:00:43;100093.28;;;5.07
51149;BMP280;37210;50.058;8.688;2022-11-25T03:03:14;100087.34;;;5.14
51149;BMP280;37210;50.058;8.688;2022-11-25T03:05:42;100090.00;;;5.17
51149;BMP280;37210;50.058;8.688;2022-11-25T03:08:10;100111.97;;;5.37
51149;BMP280;37210;50.058;8.688;2022-11-25T03:10:38;100094.88;;;5.46
51149;BMP280;37210;50.058;8.688;2022-11-25T03:13:08;100108.00;;;5.55
51149;BMP280;37210;50.058;8.688;2022-11-25T03:15:39;100070.38;;;5.31
51149;BMP280;37210;50.058;8.688;2022-11-25T03:18:09;100082.91;;;5.08
51149;BMP280;37210;50.058;8.688;2022-11-25T03:20:37;100117.38;;;5.49
51149;BMP280;37210;50.058;8.688;2022-11-25T03:23:05;100105.28;;;5.49
51149;BMP280;37210;50.058;8.688;2022-11-25T03:25:34;100090.34;;;5.36
51149;BMP280;37210;50.058;8.688;2022-11-25T03:28:03;100112.53;;;5.67
51149;BMP280;37210;50.058;8.688;2022-11-25T03:30:32;100103.69;;;5.56
51149;BMP280;37210;50.058;8.688;2022-11-25T03:33:01;100116.69;;;5.57
51149;BMP280;37210;50.058;8.688;2022-11-25T03:35:28;100119.63;;;5.76
51149;BMP280;37210;50.058;8.688;2022-11-25T03:37:56;100038.16;;;5.18
51149;BMP280;37210;50.058;8.688;2022-11-25T03:40:23;100051.31;;;5.27
51149;BMP280;37210;50.058;8.688;2022-11-25T03:42:51;100075.22;;;5.59
51149;BMP280;37210;50.058;8.688;2022-11-25T03:45:21;100100.06;;;5.46
51149;BMP280;37210;50.058;8.688;2022-11-25T03:47:50;100087.56;;;5.26
51149;BMP280;37210;50.058;8.688;2022-11-25T03:50:18;100099.09;;;5.40
51149;BMP280;37210;50.058;8.688;2022-11-25T03:52:45;100072.34;;;5.44
51149;BMP280;37210;50.058;8.688;2022-11-25T03:55:13;100108.44;;;5.80
51149;BMP280;37210;50.058;8.688;2022-11-25T03:57:44;100088.03;;;5.51
51149;BMP280;37210;50.058;8.688;2022-11-25T04:00:13;100101.63;;;5.38
51149;BMP280;37210;50.058;8.688;2022-11-25T04:02:44;100033.28;;;4.88
51149;BMP280;37210;50.058;8.688;2022-11-25T04:05:15;100092.22;;;5.43
51149;BMP280;37210;50.058;8.688;2022-11-25T04:07:43;100096.59;;;5.46
51149;BMP280;37210;50.058;8.688;2022-11-25T04:10:11;100080.09;;;5.42
51149;BMP280;37210;50.058;8.688;2022-11-25T04:12:39;100097.50;;;5.48
51149;BMP280;37210;50.058;8.688;2022-11-25T04:15:18;100111.84;;;5.76
51149;BMP280;37210;50.058;8.688;2022-11-25T04:17:50;100114.38;;;5.73
51149;BMP280;37210;50.058;8.688;2022-11-25T04:20:19;100107.56;;;5.81
51149;BMP280;37210;50.058;8.688;2022-11-25T04:22:54;100096.31;;;5.79
51149;BMP280;37210;50.058;8.688;2022-11-25T04:25:22;100086.00;;;5.83
51149;BMP280;37210;50.058;8.688;2022-11-25T04:27:50;100097.59;;;5.54
51149;BMP280;37210;50.058;8.688;2022-11-25T04:30:24;100110.59;;;5.57
51149;BMP280;37210;50.058;8.688;2022-11-25T04:32:53;100110.59;;;5.57
51149;BMP280;37210;50.058;8.688;2022-11-25T04:35:21;100090.78;;;5.59
51149;BMP280;37210;50.058;8.688;2022-11-25T04:37:52;100107.75;;;5.88
51149;BMP280;37210;50.058;8.688;2022-11-25T04:40:21;100106.75;;;5.82
51149;BMP280;37210;50.058;8.688;2022-11-25T04:43:00;100118.16;;;5.91
51149;BMP280;37210;50.058;8.688;2022-11-25T04:45:27;100126.84;;;5.92
51149;BMP280;37210;50.058;8.688;2022-11-25T04:47:56;100087.13;;;5.99
51149;BMP280;37210;50.058;8.688;2022-11-25T04:50:25;100091.66;;;6.09
51149;BMP280;37210;50.058;8.688;2022-11-25T04:53:08;100079.47;;;6.05
51149;BMP280;37210;50.058;8.688;2022-11-25T04:55:35;100072.94;;;5.79
51149;BMP280;37210;50.058;8.688;2022-11-25T04:58:07;99959.97;;;4.94
51149;BMP280;37210;50.058;8.688;2022-11-25T05:00:36;100102.91;;;5.61
51149;BMP280;37210;50.058;8.688;2022-11-25T05:03:05;100058.06;;;5.68
51149;BMP280;37210;50.058;8.688;2022-11-25T05:05:38;100018.09;;;5.56
51149;BMP280;37210;50.058;8.688;2022-11-25T05:08:07;100091.63;;;5.59
51149;BMP280;37210;50.058;8.688;2022-11-25T05:10:35;100079.66;;;5.67
51149;BMP280;37210;50.058;8.688;2022-11-25T05:13:02;100100.50;;;5.72
51149;BMP280;37210;50.058;8.688;2022-11-25T05:15:30;100093.09;;;5.90
51149;BMP280;37210;50.058;8.688;2022-11-25T05:17:57;100089.38;;;5.78
51149;BMP280;37210;50.058;8.688;2022-11-25T05:20:40;100093.94;;;5.91
51149;BMP280;37210;50.058;8.688;2022-11-25T05:23:07;100070.31;;;5.76
51149;BMP280;37210;50.058;8.688;2022-11-25T05:25:36;100106.47;;;5.65
51149;BMP280;37210;50.058;8.688;2022-11-25T05:28:21;100075.53;;;5.79
51149;BMP280;37210;50.058;8.688;2022-11-25T05:30:49;100112.88;;;5.85
51149;BMP280;37210;50.058;8.688;2022-11-25T05:33:16;100075.53;;;5.77
51149;BMP280;37210;50.058;8.688;2022-11-25T05:35:52;100092.28;;;5.94
51149;BMP280;37210;50.058;8.688;2022-11-25T05:38:27;100099.22;;;5.97
51149;BMP280;37210;50.058;8.688;2022-11-25T05:41:00;100084.53;;;5.48
51149;BMP280;37210;50.058;8.688;2022-11-25T05:43:29;100094.56;;;5.78
51149;BMP280;37210;50.058;8.688;2022-11-25T05:45:57;100040.03;;;5.25
51149;BMP280;37210;50.058;8.688;2022-11-25T05:48:25;100095.28;;;5.69
51149;BMP280;37210;50.058;8.688;2022-11-25T05:50:58;100060.41;;;5.55
51149;BMP280;37210;50.058;8.688;2022-11-25T05:53:27;100069.34;;;5.69
51149;BMP280;37210;50.058;8.688;2022-11-25T05:55:58;100096.97;;;6.18
51149;BMP280;37210;50.058;8.688;2022-11-25T05:58:49;100014.59;;;5.55
51149;BMP280;37210;50.058;8.688;2022-11-25T06:01:18;100113.31;;;6.12
51149;BMP280;37210;50.058;8.688;2022-11-25T06:03:47;100118.63;;;6.18
51149;BMP280;37210;50.058;8.688;2022-11-25T06:06:17;100122.00;;;6.14
51149;BMP280;37210;50.058;8.688;2022-11-25T06:08:45;100129.63;;;6.04
51149;BMP280;37210;50.058;8.688;2022-11-25T06:11:15;100120.25;;;6.13
51149;BMP280;37210;50.058;8.688;2022-11-25T06:13:43;99979.50;;;5.23
51149;BMP280;37210;50.058;8.688;2022-11-25T06:16:14;100121.38;;;6.30
51149;BMP280;37210;50.058;8.688;2022-11-25T06:18:45;100090.69;;;6.02
51149;BMP280;37210;50.058;8.688;2022-11-25T06:21:13;100105.69;;;6.21
51149;BMP280;37210;50.058;8.688;2022-11-25T06:23:43;100152.72;;;6.41
51149;BMP280;37210;50.058;8.688;2022-11-25T06:26:18;100131.50;;;6.12
51149;BMP280;37210;50.058;8.688;2022-11-25T06:28:47;100150.69;;;6.20
51149;BMP280;37210;50.058;8.688;2022-11-25T06:31:17;100149.31;;;6.43
51149;BMP280;37210;50.058;8.688;2022-11-25T06:33:54;100153.59;;;6.41
51149;BMP280;37210;50.058;8.688;2022-11-25T06:36:21;100098.59;;;6.11
51149;BMP280;37210;50.058;8.688;2022-11-25T06:38:53;100121.00;;;6.05
51149;BMP280;37210;50.058;8.688;2022-11-25T06:41:22;100148.31;;;6.34
51149;BMP280;37210;50.058;8.688;2022-11-25T06:43:49;100150.94;;;6.37
51149;BMP280;37210;50.058;8.688;2022-11-25T06:46:18;100160.81;;;6.59
51149;BMP280;37210;50.058;8.688;2022-11-25T06:48:46;100135.28;;;6.32
51149;BMP280;37210;50.058;8.688;2022-11-25T06:51:15;100110.63;;;6.06
51149;BMP280;37210;50.058;8.688;2022-11-25T06:53:42;100141.25;;;6.27
51149;BMP280;37210;50.058;8.688;2022-11-25T06:56:14;100168.25;;;6.36
51149;BMP280;37210;50.058;8.688;2022-11-25T06:58:44;100175.94;;;6.30
51149;BMP280;37210;50.058;8.688;2022-11-25T07:01:14;100176.75;;;6.28
51149;BMP280;37210;50.058;8.688;2022-11-25T07:03:44;100131.25;;;5.97
51149;BMP280;37210;50.058;8.688;2022-11-25T07:06:15;100127.59;;;5.86
51149;BMP280;37210;50.058;8.688;2022-11-25T07:08:44;100150.75;;;6.26
51149;BMP280;37210;50.058;8.688;2022-11-25T07:11:16;100180.41;;;6.40
51149;BMP280;37210;50.058;8.688;2022-11-25T07:13:44;100165.63;;;6.36
51149;BMP280;37210;50.058;8.688;2022-11-25T07:16:13;100158.91;;;6.47
51149;BMP280;37210;50.058;8.688;2022-11-25T07:18:42;100143.94;;;6.31
51149;BMP280;37210;50.058;8.688;2022-11-25T07:21:11;100171.91;;;6.49
51149;BMP280;37210;50.058;8.688;2022-11-25T07:23:41;100175.47;;;6.57
51149;BMP280;37210;50.058;8.688;2022-11-25T07:26:11;100167.66;;;6.56
51149;BMP280;37210;50.058;8.688;2022-11-25T07:28:42;100134.19;;;6.18
51149;BMP280;37210;50.058;8.688;2022-11-25T07:31:13;100178.97;;;6.58
51149;BMP280;37210;50.058;8.688;2022-11-25T07:33:45;100180.72;;;6.60
51149;BMP280;37210;50.058;8.688;2022-11-25T07:36:13;100106.41;;;6.13
51149;BMP280;37210;50.058;8.688;2022-11-25T07:38:41;100175.53;;;6.60
51149;BMP280;37210;50.058;8.688;2022-11-25T07:41:11;100170.63;;;6.80
51149;BMP280;37210;50.058;8.688;2022-11-25T07:43:43;100200.16;;;6.85
51149;BMP280;37210;50.058;8.688;2022-11-25T07:46:14;100169.75;;;6.78
51149;BMP280;37210;50.058;8.688;2022-11-25T07:48:44;100195.94;;;6.93
51149;BMP280;37210;50.058;8.688;2022-11-25T07:51:14;100155.00;;;6.78
51149;BMP280;37210;50.058;8.688;2022-11-25T07:53:44;100186.63;;;7.10
51149;BMP280;37210;50.058;8.688;2022-11-25T07:56:13;100176.06;;;6.96
51149;BMP280;37210;50.058;8.688;2022-11-25T07:58:43;100185.59;;;6.96
51149;BMP280;37210;50.058;8.688;2022-11-25T08:01:13;100211.06;;;7.21
51149;BMP280;37210;50.058;8.688;2022-11-25T08:03:42;100217.16;;;7.24
51149;BMP280;37210;50.058;8.688;2022-11-25T08:06:12;100187.53;;;7.13
51149;BMP280;37210;50.058;8.688;2022-11-25T08:08:42;100215.59;;;7.39
51149;BMP280;37210;50.058;8.688;2022-11-25T08:11:11;100197.19;;;7.20
51149;BMP280;37210;50.058;8.688;2022-11-25T08:13:39;100217.28;;;7.32
51149;BMP280;37210;50.058;8.688;2022-11-25T08:16:10;100154.66;;;7.17
51149;BMP280;37210;50.058;8.688;2022-11-25T08:18:39;100175.88;;;7.53
51149;BMP280;37210;50.058;8.688;2022-11-25T08:21:09;100213.31;;;7.63
51149;BMP280;37210;50.058;8.688;2022-11-25T08:23:39;100186.06;;;7.34
51149;BMP280;37210;50.058;8.688;2022-11-25T08:26:11;100213.31;;;7.64
51149;BMP280;37210;50.058;8.688;2022-11-25T08:28:40;100199.31;;;7.53
51149;BMP280;37210;50.058;8.688;2022-11-25T08:31:11;100206.56;;;7.83
51149;BMP280;37210;50.058;8.688;2022-11-25T08:33:40;100181.25;;;7.67
51149;BMP280;37210;50.058;8.688;2022-11-25T08:36:09;100166.22;;;7.43
51149;BMP280;37210;50.058;8.688;2022-11-25T08:38:38;100223.78;;;7.69
51149;BMP280;37210;50.058;8.688;2022-11-25T08:41:11;100181.91;;;7.49
51149;BMP280;37210;50.058;8.688;2022-11-25T08:43:39;100215.09;;;7.67
51149;BMP280;37210;50.058;8.688;2022-11-25T08:46:10;100233.31;;;7.68
51149;BMP280;37210;50.058;8.688;2022-11-25T08:48:40;100217.63;;;7.64
51149;BMP280;37210;50.058;8.688;2022-11-25T08:51:09;100228.03;;;7.59
51149;BMP280;37210;50.058;8.688;2022-11-25T08:53:39;100211.59;;;7.63
51149;BMP280;37210;50.058;8.688;2022-11-25T08:56:07;100232.63;;;7.84
51149;BMP280;37210;50.058;8.688;2022-11-25T08:58:35;100195.22;;;7.73
51149;BMP280;37210;50.058;8.688;2022-11-25T09:01:04;100232.63;;;7.84
51149;BMP280;37210;50.058;8.688;2022-11-25T09:03:36;100223.72;;;7.64
51149;BMP280;37210;50.058;8.688;2022-11-25T09:06:09;100230.06;;;7.87
51149;BMP280;37210;50.058;8.688;2022-11-25T09:08:39;100199.59;;;7.80
51149;BMP280;37210;50.058;8.688;2022-11-25T09:11:08;100218.56;;;7.67
51149;BMP280;37210;50.058;8.688;2022-11-25T09:13:37;100199.41;;;7.59
51149;BMP280;37210;50.058;8.688;2022-11-25T09:16:05;100238.75;;;7.88
51149;BMP280;37210;50.058;8.688;2022-11-25T09:18:35;100237.16;;;8.02
51149;BMP280;37210;50.058;8.688;2022-11-25T09:21:08;100258.06;;;8.09
51149;BMP280;37210;50.058;8.688;2022-11-25T09:23:38;100264.97;;;8.04
51149;BMP280;37210;50.058;8.688;2022-11-25T09:26:06;100210.88;;;7.78
51149;BMP280;37210;50.058;8.688;2022-11-25T09:28:34;100272.06;;;8.18
51149;BMP280;37210;50.058;8.688;2022-11-25T09:31:06;100279.72;;;8.02
51149;BMP280;37210;50.058;8.688;2022-11-25T09:33:38;100287.59;;;8.12
51149;BMP280;37210;50.058;8.688;2022-11-25T09:36:06;100287.59;;;8.12
51149;BMP280;37210;50.058;8.688;2022-11-25T09:38:33;100291.03;;;8.06
51149;BMP280;37210;50.058;8.688;2022-11-25T09:41:04;100294.66;;;8.19
51149;BMP280;37210;50.058;8.688;2022-11-25T09:43:45;100283.38;;;8.21
51149;BMP280;37210;50.058;8.688;2022-11-25T09:46:52;100287.03;;;8.35
51149;BMP280;37210;50.058;8.688;2022-11-25T09:49:44;100282.84;;;8.55
51149;BMP280;37210;50.058;8.688;2022-11-25T09:52:28;100285.59;;;8.70
51149;BMP280;37210;50.058;8.688;2022-11-25T09:55:04;100295.19;;;8.73
51149;BMP280;37210;50.058;8.688;2022-11-25T09:57:48;100295.16;;;8.67
51149;BMP280;37210;50.058;8.688;2022-11-25T10:00:37;100241.88;;;8.41
51149;BMP280;37210;50.058;8.688;2022-11-25T10:03:13;100278.69;;;8.74
51149;BMP280;37210;50.058;8.688;2022-11-25T10:05:52;100300.53;;;8.91
51149;BMP280;37210;50.058;8.688;2022-11-25T10:08:27;100300.50;;;8.83
51149;BMP280;37210;50.058;8.688;2022-11-25T10:11:02;100289.31;;;9.00
51149;BMP280;37210;50.058;8.688;2022-11-25T10:13:45;100282.31;;;8.96
51149;BMP280;37210;50.058;8.688;2022-11-25T10:16:38;100248.41;;;8.94
51149;BMP280;37210;50.058;8.688;2022-11-25T10:19:20;100282.25;;;8.85
51149;BMP280;37210;50.058;8.688;2022-11-25T10:21:53;100306.81;;;9.16
51149;BMP280;37210;50.058;8.688;2022-11-25T10:24:21;100301.56;;;9.16
51149;BMP280;37210;50.058;8.688;2022-11-25T10:26:53;100285.00;;;9.03
51149;BMP280;37210;50.058;8.688;2022-11-25T10:29:27;100304.28;;;9.29
51149;BMP280;37210;50.058;8.688;2022-11-25T10:32:09;100300.84;;;9.33
51149;BMP280;37210;50.058;8.688;2022-11-25T10:34:46;100306.91;;;9.31
51149;BMP280;37210;50.058;8.688;2022-11-25T10:37:25;100301.72;;;9.35
51149;BMP280;37210;50.058;8.688;2022-11-25T10:39:55;100287.81;;;9.41
51149;BMP280;37210;50.058;8.688;2022-11-25T10:42:24;100286.94;;;9.39
51149;BMP280;37210;50.058;8.688;2022-11-25T10:44:53;100300.13;;;9.63
51149;BMP280;37210;50.058;8.688;2022-11-25T10:47:31;100306.16;;;9.51
51149;BMP280;37210;50.058;8.688;2022-11-25T10:50:14;100313.22;;;9.71
51149;BMP280;37210;50.058;8.688;2022-11-25T10:52:50;100303.78;;;10.04
51149;BMP280;37210;50.058;8.688;2022-11-25T10:55:25;100304.63;;;9.93
51149;BMP280;37210;50.058;8.688;2022-11-25T10:57:54;100282.78;;;9.74
51149;BMP280;37210;50.058;8.688;2022-11-25T11:00:29;100301.16;;;10.06
51149;BMP280;37210;50.058;8.688;2022-11-25T11:03:00;100288.06;;;9.94
51149;BMP280;37210;50.058;8.688;2022-11-25T11:05:44;100276.75;;;9.99
51149;BMP280;37210;50.058;8.688;2022-11-25T11:08:21;100307.31;;;10.14
51149;BMP280;37210;50.058;8.688;2022-11-25T11:11:15;100291.59;;;10.09
51149;BMP280;37210;50.058;8.688;2022-11-25T11:13:46;100318.66;;;10.13
51149;BMP280;37210;50.058;8.688;2022-11-25T11:16:27;100253.22;;;9.84
51149;BMP280;37210;50.058;8.688;2022-11-25T11:18:58;100316.09;;;10.40
51149;BMP280;37210;50.058;8.688;2022-11-25T11:21:29;100299.53;;;10.38
51149;BMP280;37210;50.058;8.688;2022-11-25T11:24:00;100318.72;;;10.40
51149;BMP280;37210;50.058;8.688;2022-11-25T11:26:31;100301.28;;;10.53
51149;BMP280;37210;50.058;8.688;2022-11-25T11:29:01;100270.78;;;10.38
51149;BMP280;37210;50.058;8.688;2022-11-25T11:31:33;100263.69;;;10.02
51149;BMP280;37210;50.058;8.688;2022-11-25T11:37:35;100338.72;;;10.35
51149;BMP280;37210;50.058;8.688;2022-11-25T11:40:20;100337.91;;;10.60
51149;BMP280;37210;50.058;8.688;2022-11-25T11:43:17;100334.44;;;10.63
51149;BMP280;37210;50.058;8.688;2022-11-25T11:46:11;100292.53;;;10.31
51149;BMP280;37210;50.058;8.688;2022-11-25T11:48:53;100323.97;;;10.61
51149;BMP280;37210;50.058;8.688;2022-11-25T11:51:33;100314.34;;;10.39
51149;BMP280;37210;50.058;8.688;2022-11-25T11:54:15;100335.31;;;10.65
51149;BMP280;37210;50.058;8.688;2022-11-25T11:56:52;100333.53;;;10.56
51149;BMP280;37210;50.058;8.688;2022-11-25T11:59:42;100341.38;;;10.50
51149;BMP280;37210;50.058;8.688;2022-11-25T12:02:34;100352.75;;;10.75
51149;BMP280;37210;50.058;8.688;2022-11-25T12:05:14;100354.47;;;10.61
51149;BMP280;37210;50.058;8.688;2022-11-25T12:07:54;100347.53;;;10.66
51149;BMP280;37210;50.058;8.688;2022-11-25T12:10:32;100334.44;;;10.73
51149;BMP280;37210;50.058;8.688;2022-11-25T12:13:13;100351.88;;;10.83
51149;BMP280;37210;50.058;8.688;2022-11-25T12:15:51;100336.19;;;10.73
51149;BMP280;37210;50.058;8.688;2022-11-25T12:18:40;100345.81;;;10.89
51149;BMP280;37210;50.058;8.688;2022-11-25T12:21:25;100358.03;;;11.03
51149;BMP280;37210;50.058;8.688;2022-11-25T12:24:10;100189.63;;;9.90
51149;BMP280;37210;50.058;8.688;2022-11-25T12:26:49;100320.50;;;10.94
51149;BMP280;37210;50.058;8.688;2022-11-25T12:29:30;100233.28;;;10.15
51149;BMP280;37210;50.058;8.688;2022-11-25T12:32:28;100239.31;;;10.05
51149;BMP280;37210;50.058;8.688;2022-11-25T12:35:15;100323.09;;;10.56
51149;BMP280;37210;50.058;8.688;2022-11-25T12:37:53;100335.28;;;10.50
51149;BMP280;37210;50.058;8.688;2022-11-25T12:40:32;100358.88;;;10.87
51149;BMP280;37210;50.058;8.688;2022-11-25T12:43:19;100356.25;;;10.87
51149;BMP280;37210;50.058;8.688;2022-11-25T12:46:04;100275.97;;;10.29
51149;BMP280;37210;50.058;8.688;2022-11-25T12:48:41;100368.44;;;10.70
51149;BMP280;37210;50.058;8.688;2022-11-25T12:51:18;100372.78;;;10.53
51149;BMP280;37210;50.058;8.688;2022-11-25T12:54:04;100354.41;;;10.33
51149;BMP280;37210;50.058;8.688;2022-11-25T12:56:53;100391.03;;;10.38
51149;BMP280;37210;50.058;8.688;2022-11-25T12:59:50;100361.38;;;10.24
51149;BMP280;37210;50.058;8.688;2022-11-25T13:02:49;100408.53;;;10.53
51149;BMP280;37210;50.058;8.688;2022-11-25T13:05:58;100401.53;;;10.56
51149;BMP280;37210;50.058;8.688;2022-11-25T13:08:53;100373.63;;;10.41
51149;BMP280;37210;50.058;8.688;2022-11-25T13:14:53;100417.19;;;10.39
51149;BMP280;37210;50.058;8.688;2022-11-25T13:17:37;100418.97;;;10.54
51149;BMP280;37210;50.058;8.688;2022-11-25T13:20:40;100417.22;;;10.44
51149;BMP280;37210;50.058;8.688;2022-11-25T13:23:22;100426.88;;;10.62
51149;BMP280;37210;50.058;8.688;2022-11-25T13:32:31;100386.69;;;10.43
51149;BMP280;37210;50.058;8.688;2022-11-25T13:35:34;100435.63;;;10.74
51149;BMP280;37210;50.058;8.688;2022-11-25T13:41:36;100448.69;;;10.79
51149;BMP280;37210;50.058;8.688;2022-11-25T13:44:29;100416.44;;;10.80
51149;BMP280;37210;50.058;8.688;2022-11-25T13:47:21;100437.41;;;11.08
51149;BMP280;37210;50.058;8.688;2022-11-25T13:49:57;100411.19;;;10.80
51149;BMP280;37210;50.058;8.688;2022-11-25T13:52:34;100411.22;;;10.92
51149;BMP280;37210;50.058;8.688;2022-11-25T13:55:09;100449.63;;;11.09
51149;BMP280;37210;50.058;8.688;2022-11-25T13:58:01;100416.44;;;10.92
51149;BMP280;37210;50.058;8.688;2022-11-25T14:01:03;100463.59;;;11.25
51149;BMP280;37210;50.058;8.688;2022-11-25T14:03:50;100432.13;;;10.80
51149;BMP280;37210;50.058;8.688;2022-11-25T14:06:35;100447.88;;;11.05
51149;BMP280;37210;50.058;8.688;2022-11-25T14:09:29;100480.19;;;11.30
51149;BMP280;37210;50.058;8.688;2022-11-25T14:12:16;100483.69;;;11.38
51149;BMP280;37210;50.058;8.688;2022-11-25T14:15:31;100484.53;;;11.26
51149;BMP280;37210;50.058;8.688;2022-11-25T14:18:39;100474.97;;;11.47
51149;BMP280;37210;50.058;8.688;2022-11-25T14:21:30;100480.19;;;11.39
51149;BMP280;37210;50.058;8.688;2022-11-25T14:24:26;100480.19;;;11.54
51149;BMP280;37210;50.058;8.688;2022-11-25T14:26:58;100489.78;;;11.31
51149;BMP280;37210;50.058;8.688;2022-11-25T14:29:31;100449.63;;;11.15
51149;BMP280;37210;50.058;8.688;2022-11-25T14:32:04;100484.56;;;11.40
51149;BMP280;37210;50.058;8.688;2022-11-25T14:34:38;100485.44;;;11.25
51149;BMP280;37210;50.058;8.688;2022-11-25T14:37:12;100476.72;;;11.22
51149;BMP280;37210;50.058;8.688;2022-11-25T14:39:49;100493.28;;;11.15
51149;BMP280;37210;50.058;8.688;2022-11-25T14:42:24;100493.31;;;11.45
51149;BMP280;37210;50.058;8.688;2022-11-25T14:44:58;100474.94;;;11.19
51149;BMP280;37210;50.058;8.688;2022-11-25T14:47:31;100468.00;;;11.37
51149;BMP280;37210;50.058;8.688;2022-11-25T14:49:58;100482.81;;;11.13
51149;BMP280;37210;50.058;8.688;2022-11-25T14:52:30;100509.03;;;11.47
51149;BMP280;37210;50.058;8.688;2022-11-25T14:55:03;100472.34;;;11.36
51149;BMP280;37210;50.058;8.688;2022-11-25T14:57:33;100515.13;;;11.43
51149;BMP280;37210;50.058;8.688;2022-11-25T15:00:05;100514.25;;;11.56
51149;BMP280;37210;50.058;8.688;2022-11-25T15:02:38;100503.78;;;11.36